Time;durP1;ratioP1;P1;durP2;ratioP2;P2;SDS_P1;SDS_P2;PMS_P1;PMS_P2;Temp;Humidity;BMP_temperature;BMP_pressure;BME280_temperature;BME280_humidity;BME280_pressure;Samples;Min_cycle;Max_cycle;Signal;HPM_P1;HPM_P2
2023/05/20 00:02:12;;;;;;;1.25;1.17;;;;;;;13.48;86.90;100089.06;5137334;27;20512;-63
2023/05/20 00:04:42;;;;;;;0.77;0.70;;;;;;;13.49;86.89;100092.44;5136413;27;20043;-63
2023/05/20 00:07:11;;;;;;;1.20;1.10;;;;;;;13.50;86.92;100095.03;5136657;27;20126;-63
2023/05/20 00:09:40;;;;;;;1.30;1.20;;;;;;;13.54;86.83;100083.00;5136630;27;20054;-63
2023/05/20 00:12:09;;;;;;;1.73;1.60;;;;;;;13.56;86.79;100091.53;5136703;27;20031;-63
2023/05/20 00:14:38;;;;;;;0.50;0.50;;;;;;;13.56;86.85;100084.72;5137155;27;20093;-63
2023/05/20 00:17:07;;;;;;;1.17;0.97;;;;;;;13.57;86.62;100081.31;5136495;27;20134;-63
2023/05/20 00:19:36;;;;;;;1.17;1.10;;;;;;;13.58;86.68;100088.13;5136470;27;20047;-63
2023/05/20 00:22:07;;;;;;;0.93;0.80;;;;;;;13.59;86.90;100091.53;5118338;27;20512;-63
2023/05/20 00:24:35;;;;;;;0.90;0.85;;;;;;;13.56;86.88;100086.41;5136686;27;20051;-63
2023/05/20 00:27:04;;;;;;;2.40;1.33;;;;;;;13.50;86.98;100071.09;5136379;27;20043;-63
2023/05/20 00:29:34;;;;;;;1.60;1.50;;;;;;;13.59;86.58;100094.09;5136594;27;20031;-63
2023/05/20 00:32:03;;;;;;;0.60;0.60;;;;;;;13.57;87.02;100085.56;5136485;27;20404;-63
2023/05/20 00:34:32;;;;;;;0.95;0.85;;;;;;;13.55;86.81;100083.03;5118188;27;20087;-63
2023/05/20 00:37:01;;;;;;;1.27;1.17;;;;;;;13.59;86.84;100086.41;5136296;27;20067;-63
2023/05/20 00:39:31;;;;;;;0.97;0.93;;;;;;;13.58;86.92;100092.41;5136039;27;20078;-63
2023/05/20 00:42:02;;;;;;;1.02;0.93;;;;;;;13.59;86.73;100094.09;5136034;27;20064;-63
2023/05/20 00:44:31;;;;;;;1.23;1.13;;;;;;;13.57;87.10;100080.44;5117760;27;20047;-63
2023/05/20 00:47:01;;;;;;;1.90;1.13;;;;;;;13.62;86.82;100096.66;5135824;27;20055;-63
2023/05/20 00:49:30;;;;;;;2.17;1.77;;;;;;;13.53;87.07;100083.91;5136117;27;20557;-63
2023/05/20 00:51:59;;;;;;;3.97;1.48;;;;;;;13.57;86.71;100095.81;5135804;27;20043;-63
2023/05/20 00:54:28;;;;;;;1.42;0.88;;;;;;;13.57;86.70;100090.69;5117566;27;20031;-63
2023/05/20 00:57:01;;;;;;;1.25;1.13;;;;;;;13.56;86.97;100096.69;5135920;27;20110;-63
2023/05/20 00:59:31;;;;;;;2.58;1.17;;;;;;;13.34;87.02;100060.91;5135651;27;20051;-63
2023/05/20 01:02:00;;;;;;;2.13;1.30;;;;;;;13.50;86.75;100089.03;5135905;27;20040;-63
2023/05/20 01:04:31;;;;;;;2.95;2.65;;;;;;;13.50;86.89;100094.16;5135468;27;20100;-63
2023/05/20 01:07:03;;;;;;;0.68;0.68;;;;;;;13.48;87.05;100085.63;5117529;27;20078;-63
2023/05/20 01:09:33;;;;;;;1.73;1.63;;;;;;;13.47;87.30;100084.78;5135088;27;20092;-63
2023/05/20 01:12:12;;;;;;;2.20;1.63;;;;;;;13.48;87.15;100080.50;5117734;27;20078;-63
2023/05/20 01:14:48;;;;;;;1.27;1.17;;;;;;;13.43;87.31;100089.09;5135598;27;20484;-63
2023/05/20 01:17:21;;;;;;;1.50;1.40;;;;;;;13.47;87.22;100089.03;5135226;27;20095;-63
2023/05/20 01:19:52;;;;;;;1.27;1.10;;;;;;;13.49;87.38;100084.75;5116962;27;20050;-63
2023/05/20 01:22:26;;;;;;;1.27;1.17;;;;;;;13.52;87.19;100083.03;5135608;27;20162;-63
2023/05/20 01:24:58;;;;;;;1.20;1.15;;;;;;;13.53;87.29;100077.06;5135472;27;20134;-63
2023/05/20 01:27:29;;;;;;;0.82;0.82;;;;;;;13.53;87.37;100084.75;5116835;27;20050;-63
2023/05/20 01:29:58;;;;;;;0.70;0.68;;;;;;;13.56;87.24;100089.84;5135179;27;20054;-63
2023/05/20 01:32:32;;;;;;;1.33;1.23;;;;;;;13.58;87.52;100082.16;5135339;27;20039;-63
2023/05/20 01:35:03;;;;;;;5.95;1.60;;;;;;;13.52;87.24;100077.06;5134919;27;20039;-63
2023/05/20 01:37:36;;;;;;;1.98;1.67;;;;;;;13.61;87.17;100084.69;5135218;27;20043;-63
2023/05/20 01:40:08;;;;;;;1.08;0.95;;;;;;;13.65;87.25;100083.81;5117026;27;20528;-64
2023/05/20 01:42:39;;;;;;;0.98;0.93;;;;;;;13.68;86.95;100084.63;5100232;27;20046;-63
2023/05/20 01:45:08;;;;;;;0.70;0.70;;;;;;;13.72;87.18;100085.47;5134925;27;20120;-63
2023/05/20 01:47:38;;;;;;;1.95;1.48;;;;;;;13.78;86.75;100085.41;5135297;27;20472;-63
2023/05/20 01:50:09;;;;;;;1.40;1.30;;;;;;;13.79;86.82;100079.44;5116429;28;20092;-63
2023/05/20 01:52:39;;;;;;;2.00;1.02;;;;;;;13.82;86.41;100082.00;5116684;27;20518;-63
2023/05/20 01:55:09;;;;;;;1.10;0.88;;;;;;;13.83;86.57;100073.41;5135327;27;20031;-63
2023/05/20 01:57:38;;;;;;;1.35;0.75;;;;;;;13.84;86.63;100080.25;5134930;27;20043;-63
2023/05/20 02:00:08;;;;;;;0.80;0.80;;;;;;;13.87;86.58;100090.47;5116329;28;20035;-63
2023/05/20 02:02:45;;;;;;;0.60;0.60;;;;;;;13.84;86.99;100090.53;5134983;27;20051;-63
2023/05/20 02:05:14;;;;;;;0.80;0.80;;;;;;;13.83;86.68;100096.50;5112666;28;20075;-63
2023/05/20 02:07:45;;;;;;;;;;;;;;;13.81;86.78;100087.97;5113533;28;20050;-63
2023/05/20 02:10:14;;;;;;;0.98;0.98;;;;;;;13.76;86.84;100080.31;5113070;28;19961;-63
2023/05/20 02:12:42;;;;;;;0.83;0.83;;;;;;;13.82;86.52;100087.13;5114000;28;20407;-64
2023/05/20 02:15:12;;;;;;;1.95;1.55;;;;;;;13.83;86.50;100083.69;5113892;28;20089;-63
2023/05/20 02:17:43;;;;;;;1.80;1.60;;;;;;;13.84;86.89;100085.38;5114074;28;20130;-63
2023/05/20 02:20:15;;;;;;;2.08;1.88;;;;;;;13.83;86.81;100079.41;5114206;28;20484;-63
2023/05/20 02:22:45;;;;;;;1.33;1.23;;;;;;;13.84;86.50;100080.25;5118112;28;20046;-63
2023/05/20 02:25:14;;;;;;;2.28;1.88;;;;;;;13.82;86.71;100074.28;5118252;28;20093;-63
2023/05/20 02:27:44;;;;;;;1.75;1.60;;;;;;;13.79;86.75;100093.13;5118254;28;20572;-63
2023/05/20 02:30:15;;;;;;;0.93;0.85;;;;;;;13.80;86.83;100089.69;5116954;28;20036;-63
2023/05/20 02:32:43;;;;;;;2.05;1.85;;;;;;;13.79;86.48;100082.00;5116851;28;20051;-63
2023/05/20 02:35:12;;;;;;;2.43;1.70;;;;;;;13.79;86.74;100082.00;5117854;28;20503;-64
2023/05/20 02:37:43;;;;;;;0.70;0.70;;;;;;;13.78;86.84;100086.28;5117969;28;20280;-63
2023/05/20 02:40:13;;;;;;;2.67;1.42;;;;;;;13.79;86.42;100071.75;5118062;28;20051;-63
2023/05/20 02:42:43;;;;;;;0.70;0.50;;;;;;;13.78;86.59;100070.88;5117851;27;20047;-63
2023/05/20 02:45:11;;;;;;;3.03;2.30;;;;;;;13.78;86.52;100075.16;5116913;28;20039;-64
2023/05/20 02:47:40;;;;;;;1.43;1.30;;;;;;;13.78;86.66;100070.03;5116458;28;20299;-63
2023/05/20 02:50:10;;;;;;;1.15;1.05;;;;;;;13.76;86.43;100072.63;5117594;28;20321;-63
2023/05/20 02:52:41;;;;;;;0.95;0.90;;;;;;;13.75;86.57;100075.19;5117946;28;20118;-63
2023/05/20 02:55:10;;;;;;;1.85;1.30;;;;;;;13.71;86.51;100064.09;5116395;28;20043;-63
2023/05/20 02:57:41;;;;;;;1.45;1.33;;;;;;;13.70;86.29;100077.78;5116751;28;20061;-63
2023/05/20 03:00:12;;;;;;;0.80;0.80;;;;;;;13.69;86.76;100075.22;5117699;28;20044;-63
2023/05/20 03:02:41;;;;;;;0.68;0.68;;;;;;;13.63;86.97;100075.28;5117826;28;20039;-63
2023/05/20 03:05:11;;;;;;;1.50;1.40;;;;;;;13.67;86.82;100087.22;5129782;27;20138;-64
2023/05/20 03:07:40;;;;;;;1.67;1.42;;;;;;;13.65;86.55;100083.81;5120585;27;20423;-64
2023/05/20 03:10:10;;;;;;;1.10;1.00;;;;;;;13.64;86.76;100092.38;5138046;27;20122;-63
2023/05/20 03:12:42;;;;;;;2.85;1.17;;;;;;;13.59;86.32;100089.84;5138132;27;20058;-63
2023/05/20 03:15:11;;;;;;;1.77;1.35;;;;;;;13.57;86.83;100081.31;5137701;27;20051;-63
2023/05/20 03:17:40;;;;;;;1.02;0.93;;;;;;;13.58;86.81;100082.97;5119327;27;20077;-63
2023/05/20 03:20:11;;;;;;;2.03;1.15;;;;;;;13.58;86.43;100082.16;5119511;27;20031;-63
2023/05/20 03:22:41;;;;;;;1.17;1.08;;;;;;;13.59;86.50;100083.84;5119805;27;20492;-63
2023/05/20 03:25:10;;;;;;;0.98;0.88;;;;;;;13.57;86.68;100080.44;5119152;27;20070;-63
2023/05/20 03:27:41;;;;;;;0.75;0.75;;;;;;;13.56;86.74;100083.84;5137520;27;20114;-63
2023/05/20 03:30:11;;;;;;;1.45;1.13;;;;;;;13.55;86.41;100084.72;5119329;27;20077;-63
2023/05/20 03:32:40;;;;;;;2.42;1.50;;;;;;;13.47;86.67;100076.22;5118385;27;20122;-63
2023/05/20 03:35:09;;;;;;;0.80;0.80;;;;;;;13.55;86.44;100087.28;5137284;27;20396;-63
2023/05/20 03:37:38;;;;;;;1.83;1.35;;;;;;;13.56;86.34;100094.13;5137519;27;20066;-63
2023/05/20 03:40:09;;;;;;;0.87;0.87;;;;;;;13.55;86.50;100097.56;5118983;27;20055;-63
2023/05/20 03:42:41;;;;;;;1.95;1.30;;;;;;;13.54;86.69;100093.28;5137183;27;20047;-62
2023/05/20 03:45:10;;;;;;;1.83;0.95;;;;;;;13.54;86.73;100081.31;5119757;27;20445;-64
2023/05/20 03:47:47;;;;;;;2.42;1.23;;;;;;;13.54;86.57;100089.00;5118852;27;20051;-64
2023/05/20 03:50:18;;;;;;;2.00;0.70;;;;;;;13.50;86.47;100086.47;5118779;27;20047;-63
2023/05/20 03:52:47;;;;;;;1.63;1.25;;;;;;;13.51;86.49;100085.63;5136929;27;20500;-63
2023/05/20 03:55:19;;;;;;;2.28;2.08;;;;;;;13.52;86.40;100092.44;5137165;27;20070;-64
2023/05/20 03:57:49;;;;;;;;;;;;;;;13.51;86.39;100088.19;5137571;27;20365;-64
2023/05/20 04:00:19;;;;;;;2.80;1.52;;;;;;;13.51;86.81;100089.00;5118729;27;19941;-64
2023/05/20 04:02:50;;;;;;;1.10;1.02;;;;;;;13.37;86.67;100073.72;5137099;27;20047;-63
2023/05/20 04:05:20;;;;;;;2.15;1.70;;;;;;;13.47;86.71;100089.03;5136739;27;20043;-63
2023/05/20 04:07:49;;;;;;;1.30;0.77;;;;;;;13.43;86.83;100089.09;5136999;27;20205;-63
2023/05/20 04:10:22;;;;;;;2.33;1.25;;;;;;;13.44;87.12;100093.34;5118679;27;20043;-63
2023/05/20 04:12:53;;;;;;;2.75;2.10;;;;;;;13.48;86.83;100101.03;5136637;27;20043;-63
2023/05/20 04:15:24;;;;;;;1.27;1.05;;;;;;;13.49;86.81;100089.88;5118317;27;20031;-64
2023/05/20 04:17:56;;;;;;;1.27;0.95;;;;;;;13.49;87.00;100093.31;5136886;27;20496;-63
2023/05/20 04:20:25;;;;;;;0.73;0.70;;;;;;;13.47;86.86;100091.59;5118425;27;20405;-63
2023/05/20 04:22:57;;;;;;;1.30;1.17;;;;;;;13.50;87.14;100099.28;5136406;27;20412;-64
2023/05/20 04:25:26;;;;;;;0.60;0.60;;;;;;;13.51;87.29;100095.88;5118629;27;20376;-64
2023/05/20 04:27:58;;;;;;;1.30;1.10;;;;;;;13.55;87.21;100100.13;5118114;27;20621;-63
2023/05/20 04:30:27;;;;;;;16.00;1.10;;;;;;;13.64;87.40;100103.47;5136355;27;20043;-63
2023/05/20 04:32:57;;;;;;;1.73;1.10;;;;;;;13.76;87.29;100102.53;5117831;27;20035;-67
2023/05/20 04:35:26;;;;;;;2.30;1.92;;;;;;;13.90;86.89;100095.59;5117811;27;20046;-63
2023/05/20 04:37:58;;;;;;;0.85;0.77;;;;;;;14.02;86.93;100095.50;5136163;27;20055;-63
2023/05/20 04:40:27;;;;;;;1.80;1.30;;;;;;;14.17;86.87;100092.81;5118107;27;20047;-63
2023/05/20 04:43:00;;;;;;;1.05;0.98;;;;;;;14.35;86.68;100095.22;5118426;27;20409;-63
2023/05/20 04:45:30;;;;;;;3.60;1.13;;;;;;;14.51;86.75;100096.81;5135038;27;20130;-64
2023/05/20 04:47:59;;;;;;;1.55;0.88;;;;;;;14.63;86.57;100091.56;5136506;27;20492;-65
2023/05/20 04:50:28;;;;;;;;;;;;;;;14.80;85.64;100098.22;5136509;27;20400;-65
2023/05/20 04:52:57;;;;;;;6.20;2.00;;;;;;;14.88;85.15;100097.25;5117446;27;20018;-63
2023/05/20 04:55:29;;;;;;;0.50;0.50;;;;;;;15.03;85.07;100101.34;5117614;27;20403;-63
2023/05/20 04:58:01;;;;;;;0.73;0.73;;;;;;;15.17;84.43;100099.47;5117444;27;20047;-63
2023/05/20 05:00:30;;;;;;;1.95;1.58;;;;;;;15.32;83.89;100101.84;5117671;27;20053;-63
2023/05/20 05:03:00;;;;;;;2.95;2.28;;;;;;;15.44;82.80;100104.25;5135908;27;20043;-63
2023/05/20 05:05:29;;;;;;;1.75;1.65;;;;;;;15.56;82.69;100104.13;5117314;27;20079;-65
2023/05/20 05:07:58;;;;;;;1.17;1.08;;;;;;;15.68;82.25;100103.94;5117569;27;20043;-64
2023/05/20 05:10:26;;;;;;;0.63;0.63;;;;;;;15.82;81.78;100103.72;5117170;27;20088;-64
2023/05/20 05:12:55;;;;;;;1.60;1.33;;;;;;;15.95;81.33;100107.84;5135689;27;20070;-64
2023/05/20 05:15:26;;;;;;;1.27;1.17;;;;;;;16.07;81.02;100105.94;5117174;27;20072;-64
2023/05/20 05:17:55;;;;;;;1.40;1.25;;;;;;;16.23;80.62;100108.22;5118346;27;20352;-64
2023/05/20 05:20:24;;;;;;;;;;;;;;;16.35;80.00;100103.72;5117630;27;20078;-63
2023/05/20 05:22:53;;;;;;;0.70;0.70;;;;;;;16.43;79.35;100095.88;5117205;27;19923;-64
2023/05/20 05:25:22;;;;;;;1.55;1.10;;;;;;;16.54;78.95;100091.38;5117079;27;20046;-63
2023/05/20 05:27:51;;;;;;;0.97;0.90;;;;;;;16.56;78.34;100084.47;5135548;27;20500;-64
2023/05/20 05:30:22;;;;;;;1.98;1.23;;;;;;;16.72;77.75;100091.88;5135415;27;20076;-65
2023/05/20 05:32:52;;;;;;;0.95;0.90;;;;;;;16.82;77.22;100089.97;5117015;27;20039;-65
2023/05/20 05:35:22;;;;;;;1.92;1.77;;;;;;;16.92;76.78;100086.34;5135303;27;20047;-64
2023/05/20 05:37:51;;;;;;;1.80;0.93;;;;;;;17.03;76.19;100091.31;5116558;27;20062;-64
2023/05/20 06:56:13;;;;;;;1.75;1.30;;;;;;;19.41;68.10;100071.53;5113415;27;20388;-64
2023/05/20 06:58:42;;;;;;;1.08;1.00;;;;;;;19.58;68.05;100079.59;5110433;28;20044;-65
2023/05/20 07:01:11;;;;;;;11.27;1.48;;;;;;;19.75;67.83;100061.78;5111295;28;20043;-65
2023/05/20 07:03:41;;;;;;;0.93;0.73;;;;;;;19.86;67.27;100058.84;5110175;28;20139;-64
2023/05/20 07:06:11;;;;;;;1.70;1.60;;;;;;;19.95;67.27;100056.81;5111302;28;20051;-64
2023/05/20 07:08:40;;;;;;;3.70;1.50;;;;;;;20.06;67.11;100067.66;5109972;28;20068;-65
2023/05/20 07:11:10;;;;;;;0.70;0.70;;;;;;;20.22;66.69;100061.97;5110225;28;20067;-64
2023/05/20 07:13:40;;;;;;;2.15;1.55;;;;;;;20.40;66.38;100061.38;5108113;28;20033;-64
2023/05/20 07:16:09;;;;;;;1.60;0.90;;;;;;;20.50;66.36;100057.56;5110821;28;20058;-65
2023/05/20 07:18:42;;;;;;;1.02;0.90;;;;;;;20.57;65.75;100053.84;5111393;28;20131;-65
2023/05/20 07:21:12;;;;;;;1.25;1.08;;;;;;;20.64;65.23;100050.13;5111050;28;20042;-64
2023/05/20 07:24:07;;;;;;;1.00;0.95;;;;;;;20.75;65.07;100053.19;5107680;28;20071;-65
2023/05/20 07:26:39;;;;;;;1.13;0.95;;;;;;;20.86;64.92;100051.06;5111479;28;20060;-65
2023/05/20 07:29:14;;;;;;;2.17;1.83;;;;;;;21.03;64.78;100051.28;5109658;28;20052;-64
2023/05/20 07:31:42;;;;;;;1.17;0.80;;;;;;;21.08;64.00;100045.94;5109492;28;20071;-65
2023/05/20 07:34:11;;;;;;;1.25;1.05;;;;;;;21.12;64.05;100044.91;5109562;28;20028;-65
2023/05/20 07:36:42;;;;;;;1.05;0.90;;;;;;;21.13;63.76;100039.69;5110874;28;20473;-65
2023/05/20 07:39:13;;;;;;;1.27;1.17;;;;;;;21.19;63.98;100046.38;5111307;28;20143;-64
2023/05/20 07:41:43;;;;;;;0.60;0.60;;;;;;;21.29;63.90;100038.19;5109796;28;20504;-65
2023/05/20 07:44:14;;;;;;;0.98;0.93;;;;;;;21.51;63.69;100046.00;5109616;28;20098;-65
2023/05/20 07:46:48;;;;;;;0.60;0.60;;;;;;;21.70;64.53;100036.56;5109457;28;20071;-65
2023/05/20 07:49:20;;;;;;;1.48;1.25;;;;;;;21.89;64.15;100021.06;5110830;28;20048;-65
2023/05/20 07:51:49;;;;;;;0.77;0.77;;;;;;;22.08;62.77;100015.94;5110783;28;20051;-64
2023/05/20 07:54:18;;;;;;;0.95;0.95;;;;;;;22.24;61.03;100028.25;5108762;28;20047;-65
2023/05/20 07:56:50;;;;;;;1.20;1.10;;;;;;;22.35;60.01;100015.63;5110641;28;20064;-65
2023/05/20 07:59:21;;;;;;;0.85;0.70;;;;;;;22.48;58.41;100021.97;5110548;28;20131;-66
2023/05/20 08:01:51;;;;;;;0.57;0.57;;;;;;;22.61;57.48;100017.97;5110416;28;20512;-65
2023/05/20 08:04:22;;;;;;;0.85;0.70;;;;;;;22.67;57.27;100020.28;5110315;28;20105;-65
2023/05/20 08:06:53;;;;;;;0.82;0.82;;;;;;;22.88;58.08;100015.03;5100813;28;20146;-66
2023/05/20 08:09:32;;;;;;;1.35;1.25;;;;;;;23.06;57.68;100009.00;5096492;28;20044;-65
2023/05/20 08:12:01;;;;;;;1.30;0.98;;;;;;;23.19;57.42;100007.50;5095464;28;20151;-65
2023/05/20 08:14:31;;;;;;;1.08;0.93;;;;;;;23.22;57.13;99999.53;5095153;28;20044;-64
2023/05/20 08:17:00;;;;;;;2.90;1.30;;;;;;;23.23;56.72;100006.41;5095158;28;20036;-64
2023/05/20 08:19:29;;;;;;;1.20;1.00;;;;;;;23.07;56.83;99969.84;5096279;28;20097;-66
2023/05/20 08:21:58;;;;;;;1.30;1.20;;;;;;;23.42;56.86;100002.06;5095019;28;20086;-65
2023/05/20 08:24:27;;;;;;;1.05;0.77;;;;;;;23.50;56.26;99997.31;5096532;28;20539;-65
2023/05/20 08:26:56;;;;;;;0.77;0.75;;;;;;;23.61;56.34;99991.59;5096153;28;20055;-65
2023/05/20 08:29:27;;;;;;;0.60;0.60;;;;;;;23.70;55.71;99998.97;5096115;28;20048;-66
2023/05/20 08:31:59;;;;;;;0.50;0.50;;;;;;;23.75;55.80;99991.75;5096592;28;20090;-65
2023/05/20 08:34:29;;;;;;;0.80;0.80;;;;;;;23.68;54.09;99988.59;5094904;28;20040;-65
2023/05/20 08:36:58;;;;;;;2.15;1.33;;;;;;;23.75;53.14;99987.41;5095786;28;20071;-65
2023/05/20 08:39:27;;;;;;;1.65;1.30;;;;;;;23.78;53.08;99987.22;5094684;28;20135;-65
2023/05/20 08:41:58;;;;;;;1.38;1.27;;;;;;;23.91;52.58;99983.09;5095800;28;20054;-65
2023/05/20 08:44:29;;;;;;;1.00;0.90;;;;;;;23.94;53.34;99987.31;5096112;28;20048;-65
2023/05/20 08:47:02;;;;;;;0.60;0.60;;;;;;;24.14;53.26;99991.56;5095131;28;20460;-65
2023/05/20 08:49:32;;;;;;;0.80;0.80;;;;;;;24.37;53.36;99984.22;5095712;28;20066;-64
2023/05/20 08:52:01;;;;;;;;;;;;;;;24.42;52.49;99976.16;5096099;28;20555;-66
2023/05/20 08:54:44;;;;;;;0.90;0.90;;;;;;;24.57;52.91;99980.56;5095336;28;19927;-65
2023/05/20 08:57:14;;;;;;;1.35;1.08;;;;;;;24.64;52.09;99987.16;5095708;28;20098;-65
2023/05/20 08:59:44;;;;;;;1.25;0.98;;;;;;;24.70;51.97;99978.97;5096208;28;20135;-65
2023/05/20 09:02:14;;;;;;;1.42;1.33;;;;;;;24.82;52.08;99974.88;5094238;28;20375;-65
2023/05/20 09:04:43;;;;;;;1.23;0.90;;;;;;;24.95;51.76;99976.78;5095388;28;20126;-65
2023/05/20 09:07:12;;;;;;;1.20;1.08;;;;;;;24.85;51.23;99978.19;5095293;28;20054;-65
2023/05/20 09:09:41;;;;;;;;;;;;;;;24.93;50.90;99978.59;5095750;28;20086;-65
2023/05/20 09:12:10;;;;;;;3.07;1.90;;;;;;;24.98;51.67;99984.41;5094038;28;19927;-66
2023/05/20 09:14:39;;;;;;;1.55;1.13;;;;;;;25.18;52.00;99975.47;5095189;28;20050;-65
2023/05/20 09:17:08;;;;;;;1.13;0.90;;;;;;;25.29;52.36;99973.94;5094701;28;20101;-66
2023/05/20 09:19:38;;;;;;;1.42;0.82;;;;;;;25.42;52.33;99981.09;5094445;28;20059;-65
2023/05/20 09:22:07;;;;;;;1.10;1.00;;;;;;;25.46;51.36;99972.19;5095484;28;20059;-66
2023/05/20 09:24:36;;;;;;;1.88;1.77;;;;;;;25.36;51.53;99974.47;5094979;28;20040;-65
2023/05/20 09:27:05;;;;;;;0.77;0.73;;;;;;;25.69;53.38;99969.09;5095007;28;20093;-65
2023/05/20 09:29:34;;;;;;;;;;;;;;;25.83;53.93;99971.75;5095619;28;20036;-66
2023/05/20 09:32:04;;;;;;;1.43;1.17;;;;;;;25.98;53.83;99975.25;5095244;28;19919;-66
2023/05/20 09:34:33;;;;;;;1.38;0.85;;;;;;;25.96;53.13;99975.34;5094829;28;20281;-65
2023/05/20 09:37:06;;;;;;;0.88;0.88;;;;;;;25.98;52.03;99967.38;5094815;28;20043;-65
2023/05/20 09:39:56;;;;;;;1.15;0.98;;;;;;;25.99;51.87;99967.28;5095173;28;20107;-66
2023/05/20 09:42:28;;;;;;;1.60;1.50;;;;;;;25.88;52.14;99964.47;5094782;28;20056;-66
2023/05/20 09:44:59;;;;;;;1.17;1.00;;;;;;;25.78;52.14;99969.41;5095000;28;20048;-65
2023/05/20 09:47:28;;;;;;;0.63;0.63;;;;;;;25.70;52.02;99961.16;5094848;28;20062;-65
2023/05/20 09:49:58;;;;;;;1.42;0.95;;;;;;;25.80;52.71;99956.22;5094416;28;20044;-65
2023/05/20 09:52:28;;;;;;;1.25;1.00;;;;;;;25.79;51.75;99957.19;5095214;28;20074;-65
2023/05/20 09:54:59;;;;;;;1.75;0.77;;;;;;;25.87;51.95;99949.69;5094341;28;20494;-66
2023/05/20 09:57:30;;;;;;;0.70;0.70;;;;;;;25.99;52.93;99956.81;5094393;28;20044;-65
2023/05/20 09:59:59;;;;;;;1.08;0.98;;;;;;;26.18;52.34;99946.97;5094894;28;20439;-66
2023/05/20 10:02:28;;;;;;;1.45;1.25;;;;;;;26.33;51.25;99945.19;5094359;28;20056;-67
2023/05/20 10:05:00;;;;;;;1.00;0.95;;;;;;;26.50;50.99;99943.22;5094531;28;20074;-66
2023/05/20 10:08:02;;;;;;;0.93;0.88;;;;;;;26.34;48.65;99942.50;5094234;28;20048;-65
2023/05/20 10:10:46;;;;;;;0.80;0.80;;;;;;;26.13;49.17;99912.38;5094523;28;20040;-65
2023/05/20 10:13:41;;;;;;;1.30;1.20;;;;;;;26.36;49.07;99938.00;5094113;28;20044;-65
2023/05/20 10:16:28;;;;;;;1.10;1.00;;;;;;;26.34;49.89;99937.28;5089719;28;20032;-65
2023/05/20 10:19:07;;;;;;;1.02;0.95;;;;;;;26.44;51.03;99938.34;5094072;28;20136;-65
2023/05/20 10:21:36;;;;;;;1.13;0.98;;;;;;;26.52;50.39;99930.88;5094005;28;20048;-64
2023/05/20 10:24:08;;;;;;;0.80;0.80;;;;;;;26.47;48.39;99932.94;5094290;28;20127;-65
2023/05/20 10:26:39;;;;;;;1.30;1.20;;;;;;;26.47;47.37;99932.09;5094244;28;20109;-66
2023/05/20 10:29:15;;;;;;;0.93;0.88;;;;;;;26.44;46.89;99930.50;5094000;28;20075;-65
2023/05/20 10:31:45;;;;;;;0.70;0.68;;;;;;;26.55;47.30;99925.47;5093881;28;20044;-65
2023/05/20 10:34:17;;;;;;;0.60;0.60;;;;;;;26.64;47.56;99921.41;5094122;28;20063;-65
2023/05/20 10:36:48;;;;;;;1.10;1.00;;;;;;;26.63;47.43;99921.53;5093981;28;20071;-64
2023/05/20 10:39:17;;;;;;;1.25;1.15;;;;;;;26.45;46.04;99919.09;5094070;28;20516;-66
2023/05/20 10:41:47;;;;;;;1.05;1.02;;;;;;;26.60;46.57;99912.06;5093950;28;20036;-65
2023/05/20 10:44:16;;;;;;;0.93;0.85;;;;;;;26.74;46.38;99908.59;5093585;28;20131;-66
2023/05/20 10:46:45;;;;;;;3.25;1.73;;;;;;;26.61;45.20;99903.25;5093550;28;20040;-65
2023/05/20 10:49:34;;;;;;;1.23;1.00;;;;;;;26.74;45.58;99903.34;5093715;28;20051;-66
2023/05/20 10:52:04;;;;;;;1.10;1.00;;;;;;;27.02;45.73;99895.41;5093846;28;20060;-64
2023/05/20 10:54:36;;;;;;;0.90;0.80;;;;;;;27.12;46.74;99894.75;5092377;28;20055;-67
2023/05/20 10:57:09;;;;;;;2.85;1.30;;;;;;;26.96;45.44;99895.81;5093691;28;20082;-66
2023/05/20 10:59:38;;;;;;;0.45;0.45;;;;;;;26.93;44.90;99896.03;5093555;28;20509;-65
2023/05/20 11:02:11;;;;;;;2.00;1.05;;;;;;;27.01;45.16;99896.38;5093574;28;20052;-66
2023/05/20 11:04:43;;;;;;;1.67;1.40;;;;;;;27.01;45.23;99891.97;5093817;28;20501;-66
2023/05/20 11:07:12;;;;;;;0.75;0.75;;;;;;;26.95;45.03;99886.28;5093805;28;20400;-64
2023/05/20 11:09:49;;;;;;;0.90;0.90;;;;;;;26.94;44.65;99876.75;5093388;28;20048;-65
2023/05/20 11:12:21;;;;;;;1.20;0.98;;;;;;;26.93;44.93;99861.97;5093816;28;20119;-65
2023/05/20 11:14:50;;;;;;;1.13;1.02;;;;;;;27.21;45.62;99867.09;5094595;28;20382;-64
2023/05/20 11:17:20;;;;;;;0.98;0.90;;;;;;;27.25;45.17;99864.16;5093278;28;20036;-65
2023/05/20 11:19:50;;;;;;;1.70;1.52;;;;;;;26.96;45.72;99853.91;5094108;28;20040;-65
2023/05/20 11:22:19;;;;;;;0.88;0.80;;;;;;;26.89;45.59;99853.47;5092377;28;20044;-65
2023/05/20 11:24:48;;;;;;;0.77;0.77;;;;;;;27.07;45.93;99851.41;5093327;28;20032;-65
2023/05/20 11:27:17;;;;;;;0.57;0.57;;;;;;;27.23;45.84;99857.34;5093331;28;20040;-65
2023/05/20 11:29:50;;;;;;;0.80;0.80;;;;;;;27.38;45.56;99851.09;5093583;28;20493;-65
2023/05/20 11:32:21;;;;;;;0.98;0.88;;;;;;;27.51;45.79;99854.59;5093669;28;20048;-65
2023/05/20 11:34:52;;;;;;;0.90;0.70;;;;;;;27.44;45.23;99853.31;5093258;28;20113;-65
2023/05/20 11:37:22;;;;;;;1.08;0.90;;;;;;;27.56;44.98;99857.75;5093251;28;20444;-65
2023/05/20 11:40:06;;;;;;;0.70;0.70;;;;;;;27.59;44.11;99857.53;5092004;28;20097;-66
2023/05/20 11:42:36;;;;;;;0.98;0.85;;;;;;;27.79;44.36;99857.00;5096218;28;20052;-65
2023/05/20 11:45:13;;;;;;;1.08;0.98;;;;;;;27.73;43.10;99860.06;5097036;28;20052;-65
2023/05/20 11:47:42;;;;;;;0.80;0.70;;;;;;;27.76;43.11;99849.34;5096941;28;20067;-65
2023/05/20 11:50:17;;;;;;;1.13;1.00;;;;;;;27.81;41.79;99852.47;5097197;28;20032;-65
2023/05/20 11:52:46;;;;;;;1.52;1.05;;;;;;;27.62;41.61;99846.81;5097373;28;20498;-65
2023/05/20 11:55:15;;;;;;;1.00;0.88;;;;;;;27.70;41.96;99855.00;5096597;28;20048;-64
2023/05/20 11:57:44;;;;;;;1.20;1.10;;;;;;;27.79;42.08;99848.28;5096825;28;20559;-64
2023/05/20 12:00:14;;;;;;;0.70;0.70;;;;;;;28.01;42.09;99853.75;5097096;28;20436;-65
2023/05/20 12:02:44;;;;;;;0.65;0.65;;;;;;;27.83;40.84;99845.34;5096700;28;20044;-65
2023/05/20 12:05:13;;;;;;;0.60;0.60;;;;;;;27.81;40.89;99841.97;5096883;28;20040;-65
2023/05/20 12:07:42;;;;;;;1.17;1.08;;;;;;;27.90;40.73;99846.63;5096545;28;20047;-65
2023/05/20 12:10:12;;;;;;;0.93;0.70;;;;;;;27.82;40.81;99843.69;5096420;28;20111;-64
2023/05/20 12:12:42;;;;;;;0.70;0.70;;;;;;;27.56;41.00;99842.00;5096511;28;20078;-65
2023/05/20 12:15:12;;;;;;;1.25;1.00;;;;;;;27.37;42.12;99836.28;5096477;28;20067;-65
2023/05/20 12:17:49;;;;;;;1.77;1.42;;;;;;;27.65;44.21;99845.75;5096239;28;20048;-65
2023/05/20 12:20:21;;;;;;;2.05;1.55;;;;;;;27.46;42.95;99846.19;5096349;28;20039;-65
2023/05/20 12:22:50;;;;;;;5.63;1.33;;;;;;;27.48;42.21;99844.28;5096219;28;20048;-65
2023/05/20 12:25:20;;;;;;;1.38;1.20;;;;;;;27.72;42.37;99837.38;5096305;28;20044;-65
2023/05/20 12:27:50;;;;;;;0.82;0.82;;;;;;;28.03;43.41;99835.28;5096468;28;20040;-64
2023/05/20 12:30:21;;;;;;;1.45;1.27;;;;;;;28.06;44.13;99835.06;5096431;28;20066;-65
2023/05/20 12:32:52;;;;;;;1.08;0.98;;;;;;;28.17;44.30;99832.53;5096023;28;20083;-65
2023/05/20 12:35:38;;;;;;;2.05;1.35;;;;;;;28.42;43.22;99822.81;5096343;28;20089;-65
2023/05/20 12:38:08;;;;;;;1.50;1.15;;;;;;;28.55;42.46;99822.75;5096289;28;20072;-65
2023/05/20 12:40:37;;;;;;;1.05;0.98;;;;;;;28.54;41.50;99818.44;5095535;28;20052;-65
2023/05/20 12:43:06;;;;;;;2.15;1.63;;;;;;;28.43;41.23;99818.41;5096162;28;20040;-63
2023/05/20 12:45:35;;;;;;;0.93;0.73;;;;;;;28.36;40.83;99820.59;5095774;28;20505;-64
2023/05/20 12:48:06;;;;;;;1.60;1.38;;;;;;;28.33;40.87;99812.13;5095916;28;20044;-65
2023/05/20 12:50:35;;;;;;;3.53;1.33;;;;;;;28.12;40.78;99811.03;5095791;28;20055;-66
2023/05/20 12:53:05;;;;;;;;;;;;;;;27.80;40.39;99815.88;5096205;28;20213;-65
2023/05/20 12:55:34;;;;;;;1.52;1.33;;;;;;;27.54;40.29;99822.91;5095527;28;19924;-66
2023/05/20 12:58:02;;;;;;;0.98;0.90;;;;;;;27.42;40.92;99818.50;5095878;28;20040;-65
2023/05/20 13:00:31;;;;;;;1.38;1.13;;;;;;;27.54;39.44;99817.66;5095619;28;20070;-64
2023/05/20 13:03:00;;;;;;;;;;;;;;;27.89;38.01;99813.44;5095874;28;20048;-65
2023/05/20 13:05:31;;;;;;;3.40;1.73;;;;;;;27.88;36.93;99808.31;5094899;28;19930;-65